Latest Weather Observations for Gingin Airport

IDW60801

Issued at 2:32 pm WST Saturday 13 February 2016 (issued every 30 minutes, with the page automatically refreshed every 10 minutes)

About weather observations | Map of weather stations | Latest weather observations for WA | Other Formats
Station Details ID: 009178 Name: GINGIN AERO Lat: -31.46 Lon: 115.86 Height: 73.0 m
Data from the previous 72 hours. | See also: Recent months at Gingin Airport
Date/Time
WST
Temp
°C
App
Temp
°C
Dew
Point
Rel
Hum
%
Delta-T
°C
Wind Press
QNH
hPa
Press
MSL
hPa
Rain
since 9 am
mm
Dir
 
Spd
km/h
Gust
km/h
Spd
kts
Gust
kts
13/02:30pm 31.0 27.0 8.1 24 12.6 SE 19 30 10 16 1017.4 1017.0 0.0
13/02:00pm 30.5 27.3 9.9 28 11.7 ESE 17 26 9 14 1017.7 1017.3 0.0
13/01:30pm 29.6 26.1 10.2 30 11.0 SSE 19 30 10 16 1018.2 1017.8 0.0
13/01:00pm 30.1 26.7 10.6 30 11.1 SE 19 32 10 17 1018.6 1018.2 0.0
13/12:30pm 28.4 24.8 10.6 33 10.1 SE 20 32 11 17 1019.0 1018.6 0.0
13/12:00pm 29.1 27.0 12.5 36 9.7 E 15 26 8 14 1019.3 1018.9 0.0
13/11:30am 27.6 24.9 12.8 40 8.7 ESE 19 28 10 15 1019.7 1019.3 0.0
13/11:00am 26.6 23.4 13.0 43 8.0 ESE 22 37 12 20 1020.2 1019.8 0.0
13/10:30am 25.7 23.0 13.5 46 7.2 ESE 20 32 11 17 1020.5 1020.1 0.0
13/10:00am 25.5 22.5 13.7 48 6.9 ESE 22 32 12 17 1020.6 1020.2 0.0
13/09:30am 24.4 21.7 14.5 54 5.9 SE 22 33 12 18 1020.7 1020.3 0.0
13/09:00am 24.2 20.9 14.9 56 5.6 SE 26 35 14 19 1020.8 1020.4 0.0
13/08:30am 23.1 20.1 14.7 59 5.0 SE 24 33 13 18 1021.0 1020.6 0.0
13/08:00am 22.9 19.6 15.0 61 4.7 SE 26 35 14 19 1020.8 1020.4 0.0
13/07:30am 22.2 20.7 15.3 65 4.1 SSE 17 24 9 13 1020.7 1020.3 0.0
13/07:00am 19.8 19.0 15.2 75 2.7 S 13 19 7 10 1020.5 1020.1 0.0
13/06:30am 18.8 18.1 15.3 80 2.1 S 13 17 7 9 1020.2 1019.8 0.0
13/06:00am 17.7 17.3 15.1 85 1.5 S 11 13 6 7 1020.0 1019.6 0.0
13/05:30am 17.3 17.2 14.9 86 1.4 SSE 9 11 5 6 1019.7 1019.3 0.0
13/05:00am 18.0 16.8 15.1 83 1.7 S 15 17 8 9 1019.2 1018.8 0.0
13/04:30am 17.7 17.3 15.1 85 1.5 S 11 13 6 7 1019.0 1018.6 0.0
13/04:00am 17.6 17.2 15.2 86 1.4 S 11 13 6 7 1018.7 1018.3 0.0
13/03:30am 17.7 17.7 15.1 85 1.5 SE 9 11 5 6 1018.3 1017.9 0.0
13/03:00am 18.3 18.4 15.6 84 1.6 SSE 9 11 5 6 1018.0 1017.6 0.0
13/02:30am 18.7 19.0 15.9 84 1.7 S 9 13 5 7 1018.0 1017.6 0.0
13/02:00am 19.2 19.5 16.1 82 1.9 S 9 13 5 7 1017.8 1017.4 0.0
13/01:30am 19.8 19.5 16.4 81 2.0 S 13 17 7 9 1017.6 1017.2 0.0
13/01:00am 20.2 20.6 17.2 83 1.8 S 11 15 6 8 1017.6 1017.2 0.0
13/12:30am 20.4 21.1 18.0 86 1.5 S 11 15 6 8 1017.6 1017.2 0.0
13/12:00am 20.8 21.6 18.2 85 1.6 S 11 19 6 10 1017.7 1017.3 0.0
 
Date/Time
WST
Temp
°C
App
Temp
°C
Dew
Point
Rel
Hum
%
Delta-T
°C
Wind Press
QNH
hPa
Press
MSL
hPa
Rain
since 9 am
mm
Dir
 
Spd
km/h
Gust
km/h
Spd
kts
Gust
kts
12/11:30pm 21.1 21.7 18.5 85 1.6 SSW 13 17 7 9 1017.7 1017.3 0.0
12/11:00pm 21.3 22.0 18.9 86 1.5 SSW 13 17 7 9 1017.7 1017.3 0.0
12/10:30pm 21.5 21.4 18.7 84 1.8 SSW 17 20 9 11 1017.9 1017.5 0.0
12/10:00pm 21.6 21.1 18.6 83 1.9 SSW 19 26 10 14 1018.0 1017.6 0.0
12/09:30pm 21.5 20.7 18.5 83 1.9 SSW 20 30 11 16 1017.9 1017.5 0.0
12/09:00pm 21.6 20.8 18.4 82 2.0 SSW 20 28 11 15 1017.8 1017.4 0.0
12/08:30pm 21.8 20.8 18.0 79 2.4 SSW 20 30 11 16 1017.4 1017.0 0.0
12/08:00pm 22.0 20.2 17.8 77 2.6 SSW 24 33 13 18 1017.0 1016.7 0.0
12/07:30pm 22.5 20.2 17.6 74 3.0 SSW 26 33 14 18 1016.8 1016.5 0.0
12/07:00pm 23.1 21.0 17.1 69 3.7 SSW 24 35 13 19 1016.6 1016.3 0.0
12/06:30pm 24.3 21.8 17.1 64 4.5 SSW 26 39 14 21 1016.4 1016.1 0.0
12/06:00pm 24.9 21.4 16.6 60 5.1 SSW 30 39 16 21 1016.2 1015.9 0.0
12/05:30pm 25.1 20.8 16.0 57 5.6 SSW 33 43 18 23 1015.9 1015.6 0.0
12/05:00pm 26.6 22.3 15.3 50 6.9 SW 32 41 17 22 1015.7 1015.4 0.0
12/04:30pm 28.6 23.8 12.9 38 9.3 SSW 30 39 16 21 1015.4 1015.1 0.0
12/04:00pm 29.3 25.1 13.5 38 9.4 SSW 28 35 15 19 1015.3 1015.0 0.0
12/03:30pm 29.8 24.8 12.3 34 10.3 SW 30 37 16 20 1015.3 1015.0 0.0
12/03:00pm 30.0 25.3 13.3 36 10.0 SW 30 37 16 20 1015.4 1015.1 0.0
12/02:30pm 29.9 25.0 13.6 36 9.8 SSW 32 39 17 21 1015.7 1015.4 0.0
12/02:00pm 30.4 26.8 15.3 40 9.3 SW 28 37 15 20 1015.7 1015.4 0.0
12/01:30pm 29.9 25.9 15.2 41 9.0 SW 30 35 16 19 1015.8 1015.5 0.0
12/01:00pm 29.8 27.1 16.6 45 8.3 SW 26 33 14 18 1016.1 1015.8 0.0
12/12:30pm 30.9 28.6 17.6 45 8.5 SW 26 35 14 19 1016.3 1016.0 0.0
12/12:00pm 30.5 27.9 16.9 44 8.6 SW 26 32 14 17 1016.3 1016.0 0.0
12/11:30am 30.8 29.3 17.8 45 8.3 SW 22 30 12 16 1016.5 1016.2 0.0
12/11:00am 31.1 30.0 17.4 44 8.7 SW 19 26 10 14 1016.7 1016.4 0.0
12/10:30am 30.7 29.2 14.3 36 10.0 S 15 24 8 13 1016.9 1016.6 0.0
12/10:00am 29.2 28.1 17.4 49 7.5 SSW 19 24 10 13 1017.4 1017.0 0.0
12/09:30am 27.0 27.3 18.8 60 5.3 SSW 15 20 8 11 1017.5 1017.1 0.0
12/09:00am 24.9 25.4 18.4 67 4.1 SSW 13 17 7 9 1017.6 1017.2 0.0
12/08:30am 23.9 24.4 18.3 71 3.5 S 13 19 7 10 1017.7 1017.3 0.0
12/08:00am 22.5 23.1 18.5 78 2.5 SSW 13 17 7 9 1017.6 1017.2 0.0
12/07:30am 21.0 21.9 18.4 85 1.6 S 11 15 6 8 1017.4 1017.0 0.0
12/07:00am 19.7 21.0 18.4 92 0.8 SSE 9 11 5 6 1017.2 1016.8 0.0
12/06:30am 19.6 21.8 19.3 98 0.2 SSE 6 9 3 5 1017.2 1016.8 0.0
12/06:00am 19.2 22.1 19.0 99 0.1 S 2 7 1 4 1016.4 1016.1 0.0
12/05:30am 19.5 21.5 19.2 98 0.2 SSW 7 9 4 5 1016.1 1015.8 0.0
12/05:00am 20.0 22.2 19.5 97 0.3 S 7 9 4 5 1015.7 1015.4 0.0
12/04:30am 20.6 22.6 19.9 96 0.4 SSW 9 11 5 6 1015.4 1015.1 0.0
12/04:00am 20.9 23.0 20.1 95 0.5 S 9 11 5 6 1015.0 1014.7 0.0
12/03:30am 21.0 23.0 20.0 94 0.6 S 9 11 5 6 1014.7 1014.4 0.0
12/03:00am 21.6 23.3 20.1 91 1.0 SSW 11 13 6 7 1014.5 1014.2 0.0
12/02:30am 21.9 23.3 20.4 91 1.0 SSW 13 17 7 9 1014.2 1013.9 0.0
12/02:00am 22.0 24.2 20.3 90 1.1 S 9 15 5 8 1014.3 1014.0 0.0
12/01:30am 21.7 22.7 20.2 91 1.0 SSW 15 20 8 11 1014.0 1013.7 0.0
12/01:00am 21.3 23.0 20.1 93 0.8 SSW 11 13 6 7 1014.0 1013.7 0.0
12/12:30am 21.6 23.3 20.2 92 0.9 SSW 11 15 6 8 1014.3 1014.0 0.0
12/12:00am 21.8 23.1 20.1 90 1.1 SSW 13 15 7 8 1014.3 1014.0 0.0
 
Date/Time
WST
Temp
°C
App
Temp
°C
Dew
Point
Rel
Hum
%
Delta-T
°C
Wind Press
QNH
hPa
Press
MSL
hPa
Rain
since 9 am
mm
Dir
 
Spd
km/h
Gust
km/h
Spd
kts
Gust
kts
11/11:30pm 21.9 22.9 20.2 90 1.1 SSW 15 19 8 10 1014.3 1014.0 0.0
11/11:00pm 21.7 23.1 20.3 92 0.9 SW 13 19 7 10 1014.6 1014.3 0.0
11/10:30pm 21.4 23.0 20.0 92 0.9 SW 11 13 6 7 1014.7 1014.4 0.0
11/10:00pm 21.6 23.9 19.9 90 1.1 SSW 7 11 4 6 1014.7 1014.4 0.0
11/09:30pm 21.9 23.1 20.0 89 1.2 SSW 13 17 7 9 1014.6 1014.3 0.0
11/09:00pm 22.2 23.1 20.1 88 1.4 SW 15 20 8 11 1014.3 1014.0 0.0
11/08:30pm 22.5 23.1 20.2 87 1.5 SW 17 20 9 11 1013.9 1013.6 0.0
11/08:00pm 22.9 23.1 20.2 85 1.7 SW 19 24 10 13 1013.6 1013.3 0.0
11/07:30pm 23.7 23.9 20.2 81 2.3 SW 19 26 10 14 1013.2 1012.8 0.0
11/07:00pm 25.4 25.4 19.8 71 3.6 WSW 19 24 10 13 1012.9 1012.5 0.0
11/06:30pm 27.6 26.9 19.4 61 5.3 SW 22 30 12 16 1012.4 1012.0 0.0
11/06:00pm 29.2 27.6 18.3 51 7.0 SW 24 28 13 15 1012.2 1011.8 0.0
11/05:30pm 32.1 29.7 16.4 39 9.9 SW 24 32 13 17 1011.7 1011.3 0.0
11/05:00pm 33.2 30.1 13.3 30 12.0 SW 22 28 12 15 1011.5 1011.1 0.0
11/04:30pm 33.5 30.2 14.0 30 11.9 SW 24 30 13 16 1011.4 1011.0 0.0
11/04:00pm 33.6 31.5 15.1 33 11.5 SW 20 28 11 15 1011.3 1010.9 0.0
11/03:30pm 32.9 31.0 16.7 38 10.3 SW 22 32 12 17 1011.4 1011.0 0.0
11/03:00pm 33.3 31.3 17.5 39 10.2 WSW 24 32 13 17 1011.5 1011.1 0.0
11/02:30pm 33.8 32.1 17.1 37 10.7 WSW 22 30 12 16 1011.6 1011.2 0.0
11/02:00pm 34.0 32.7 18.1 39 10.3 SW 22 33 12 18 1011.8 1011.4 0.0
11/01:30pm 32.9 31.3 18.3 42 9.5 WSW 24 32 13 17 1012.0 1011.6 0.0
11/01:00pm 33.0 31.9 20.2 47 8.5 SW 26 33 14 18 1011.9 1011.5 0.0
11/12:30pm 34.5 33.7 20.1 43 9.6 WSW 24 32 13 17 1011.9 1011.5 0.0
11/12:00pm 35.1 34.6 19.9 41 10.2 SW 22 32 12 17 1012.0 1011.6 0.0
11/11:30am 36.3 35.6 16.5 31 12.7 W 15 24 8 13 1012.2 1011.8 0.0
11/11:00am 33.3 34.5 19.0 42 9.4 SSW 11 20 6 11 1012.7 1012.3 0.0
11/10:30am 31.1 33.5 20.1 52 7.3 SSW 7 15 4 8 1013.1 1012.7 0.0
11/10:00am 28.5 30.4 19.7 59 5.8 SW 9 13 5 7 1013.4 1013.0 0.0
11/09:30am 26.3 29.2 20.6 71 3.8 ENE 6 9 3 5 1013.5 1013.2 0.0
11/09:00am 22.9 25.5 20.1 84 1.8 S 6 9 3 5 1013.6 1013.3 0.0
11/08:30am 21.2 23.5 20.7 97 0.3 W 9 11 5 6 1013.9 1013.6 0.0
11/08:00am 20.4 22.2 20.4 100 0.0 W 11 15 6 8 1013.7 1013.4 0.0
11/07:30am 19.2 22.2 19.2 100 0.0 NNW 2 7 1 4 1013.5 1013.2 0.0
11/07:00am 17.9 19.3 17.9 100 0.0 N 7 9 4 5 1013.3 1012.9 0.0
11/06:30am 18.6 20.3 18.6 100 0.0 NNW 7 11 4 6 1013.2 1012.8 0.0
11/06:00am 17.7 19.2 17.7 100 0.0 W 6 7 3 4 1012.7 1012.3 0.0
11/05:30am 17.1 18.0 16.5 96 0.4 W 7 15 4 8 1012.5 1012.1 0.0
11/05:00am 17.4 17.8 16.3 93 0.7 NW 9 15 5 8 1012.0 1011.6 0.0
11/04:30am 17.2 17.0 14.8 86 1.4 N 9 17 5 9 1011.8 1011.4 0.0
11/04:00am 17.4 17.5 14.5 83 1.7 ENE 7 11 4 6 1011.8 1011.4 0.0
11/03:30am 17.3 17.4 14.4 83 1.7 ENE 7 9 4 5 1011.8 1011.4 0.0
11/03:00am 17.4 19.2 15.4 88 1.2 CALM 0 6 0 3 1011.8 1011.4 0.0
11/02:30am 18.3 20.2 16.6 90 1.0 WSW 2 7 1 4 1012.1 1011.7 0.0
11/02:00am 17.6 17.8 14.3 81 1.9 WSW 6 9 3 5 1012.2 1011.8 0.0
11/01:30am 18.3 18.8 14.0 76 2.5 W 4 7 2 4 1012.3 1011.9 0.0
11/01:00am 18.7 18.6 14.0 74 2.7 NNE 7 11 4 6 1012.5 1012.1 0.0
11/12:30am 19.5 20.8 14.1 71 3.1 CALM 0 0 0 0 1012.6 1012.2 0.0
11/12:00am 19.2 19.0 13.6 70 3.2 NNE 7 11 4 6 1012.9 1012.5 0.0
 
Date/Time
WST
Temp
°C
App
Temp
°C
Dew
Point
Rel
Hum
%
Delta-T
°C
Wind Press
QNH
hPa
Press
MSL
hPa
Rain
since 9 am
mm
Dir
 
Spd
km/h
Gust
km/h
Spd
kts
Gust
kts
10/11:30pm 20.4 21.0 14.3 68 3.6 NE 4 9 2 5 1012.8 1012.4 0.0
10/11:00pm 21.7 22.5 14.8 65 4.1 SSE 4 9 2 5 1013.1 1012.7 0.0
10/10:30pm 22.8 24.0 14.9 61 4.7 SSE 2 9 1 5 1013.3 1012.9 0.0
10/10:00pm 24.6 24.7 15.5 57 5.5 SSW 9 11 5 6 1013.4 1013.0 0.0
10/09:30pm 25.2 24.2 14.6 51 6.3 SW 13 17 7 9 1013.6 1013.3 0.0
10/09:00pm 25.6 24.8 15.0 52 6.4 WSW 13 15 7 8 1013.4 1013.0 0.0
10/08:30pm 26.0 25.1 13.8 47 7.2 W 11 13 6 7 1013.0 1012.6 0.0
10/08:00pm 27.8 26.3 13.0 40 8.7 WSW 13 15 7 8 1012.8 1012.4 0.0
10/07:30pm 29.3 27.9 12.3 35 10.0 WSW 11 13 6 7 1012.6 1012.2 0.0
10/07:00pm 30.8 28.5 11.7 31 11.2 SW 15 19 8 10 1012.2 1011.8 0.0
10/06:30pm 33.0 29.9 10.4 25 13.1 SW 17 20 9 11 1011.9 1011.5 0.0
10/06:00pm 34.8 31.4 10.6 23 14.2 SSW 19 20 10 11 1011.7 1011.3 0.0
10/05:30pm 35.8 32.3 10.1 21 15.0 SSW 19 22 10 12 1011.5 1011.1 0.0
10/05:00pm 36.8 33.3 10.2 20 15.6 WSW 19 22 10 12 1011.4 1011.0 0.0
10/04:30pm 37.3 32.9 9.0 18 16.3 SW 22 28 12 15 1011.1 1010.7 0.0
10/04:00pm 37.8 33.5 9.4 18 16.5 SW 22 32 12 17 1011.2 1010.8 0.0
10/03:30pm 37.9 32.7 10.3 19 16.3 WSW 28 33 15 18 1011.2 1010.8 0.0
10/03:00pm 38.4 33.6 11.5 20 16.2 WSW 28 35 15 19 1011.2 1010.8 0.0

Other Formats:

Comma delimited format used in spreadsheet applications
http://www.bom.gov.au/fwo/IDW60801/IDW60801.95612.axf

JavaScript Object Notation format (JSON) in row-major order
http://www.bom.gov.au/fwo/IDW60801/IDW60801.95612.json